sensor_id;sensor_type;location;lat;lon;timestamp;P1;durP1;ratioP1;P2;durP2;ratioP2
5869;SDS011;2961;47.702;9.410;2022-08-24T00:00:52;5.13;;;4.27;;
5869;SDS011;2961;47.702;9.410;2022-08-24T00:03:19;3.97;;;3.73;;
5869;SDS011;2961;47.702;9.410;2022-08-24T00:05:45;5.93;;;4.70;;
5869;SDS011;2961;47.702;9.410;2022-08-24T00:08:14;4.97;;;4.63;;
5869;SDS011;2961;47.702;9.410;2022-08-24T00:10:43;4.40;;;4.07;;
5869;SDS011;2961;47.702;9.410;2022-08-24T00:13:10;4.33;;;3.83;;
5869;SDS011;2961;47.702;9.410;2022-08-24T00:15:37;6.13;;;5.53;;
5869;SDS011;2961;47.702;9.410;2022-08-24T00:18:04;4.87;;;4.43;;
5869;SDS011;2961;47.702;9.410;2022-08-24T00:20:31;5.17;;;4.50;;
5869;SDS011;2961;47.702;9.410;2022-08-24T00:22:58;5.07;;;4.63;;
5869;SDS011;2961;47.702;9.410;2022-08-24T00:25:27;4.67;;;4.20;;
5869;SDS011;2961;47.702;9.410;2022-08-24T00:27:54;4.90;;;4.60;;
5869;SDS011;2961;47.702;9.410;2022-08-24T00:30:21;5.30;;;5.00;;
5869;SDS011;2961;47.702;9.410;2022-08-24T00:32:48;5.60;;;5.20;;
5869;SDS011;2961;47.702;9.410;2022-08-24T00:35:16;5.83;;;5.33;;
5869;SDS011;2961;47.702;9.410;2022-08-24T00:37:44;8.43;;;5.07;;
5869;SDS011;2961;47.702;9.410;2022-08-24T00:40:13;6.60;;;4.90;;
5869;SDS011;2961;47.702;9.410;2022-08-24T00:42:45;4.90;;;4.60;;
5869;SDS011;2961;47.702;9.410;2022-08-24T00:45:12;5.60;;;5.10;;
5869;SDS011;2961;47.702;9.410;2022-08-24T00:47:42;5.40;;;5.00;;
5869;SDS011;2961;47.702;9.410;2022-08-24T00:50:13;5.87;;;5.27;;
5869;SDS011;2961;47.702;9.410;2022-08-24T00:52:45;4.90;;;4.60;;
5869;SDS011;2961;47.702;9.410;2022-08-24T00:55:17;5.17;;;4.77;;
5869;SDS011;2961;47.702;9.410;2022-08-24T00:57:50;4.40;;;4.03;;
5869;SDS011;2961;47.702;9.410;2022-08-24T01:00:21;4.80;;;4.30;;
5869;SDS011;2961;47.702;9.410;2022-08-24T01:02:52;4.73;;;4.43;;
5869;SDS011;2961;47.702;9.410;2022-08-24T01:05:23;4.57;;;4.17;;
5869;SDS011;2961;47.702;9.410;2022-08-24T01:07:50;4.60;;;4.30;;
5869;SDS011;2961;47.702;9.410;2022-08-24T01:10:18;4.67;;;4.43;;
5869;SDS011;2961;47.702;9.410;2022-08-24T01:12:51;4.63;;;4.23;;
5869;SDS011;2961;47.702;9.410;2022-08-24T01:15:22;5.40;;;4.80;;
5869;SDS011;2961;47.702;9.410;2022-08-24T01:17:49;5.57;;;5.07;;
5869;SDS011;2961;47.702;9.410;2022-08-24T01:20:34;5.80;;;5.37;;
5869;SDS011;2961;47.702;9.410;2022-08-24T01:23:04;6.07;;;5.53;;
5869;SDS011;2961;47.702;9.410;2022-08-24T01:25:35;6.23;;;5.20;;
5869;SDS011;2961;47.702;9.410;2022-08-24T01:28:03;6.90;;;5.50;;
5869;SDS011;2961;47.702;9.410;2022-08-24T01:30:34;7.23;;;5.67;;
5869;SDS011;2961;47.702;9.410;2022-08-24T01:33:02;5.07;;;4.67;;
5869;SDS011;2961;47.702;9.410;2022-08-24T01:35:31;8.27;;;5.70;;
5869;SDS011;2961;47.702;9.410;2022-08-24T01:37:58;6.10;;;5.27;;
5869;SDS011;2961;47.702;9.410;2022-08-24T01:40:30;7.17;;;5.77;;
5869;SDS011;2961;47.702;9.410;2022-08-24T01:43:00;5.47;;;5.10;;
5869;SDS011;2961;47.702;9.410;2022-08-24T01:45:30;8.87;;;5.70;;
5869;SDS011;2961;47.702;9.410;2022-08-24T01:47:57;6.20;;;5.60;;
5869;SDS011;2961;47.702;9.410;2022-08-24T01:50:26;6.30;;;5.47;;
5869;SDS011;2961;47.702;9.410;2022-08-24T01:52:54;7.17;;;5.63;;
5869;SDS011;2961;47.702;9.410;2022-08-24T01:55:23;6.73;;;6.00;;
5869;SDS011;2961;47.702;9.410;2022-08-24T01:57:50;6.77;;;6.10;;
5869;SDS011;2961;47.702;9.410;2022-08-24T02:00:18;7.17;;;6.60;;
5869;SDS011;2961;47.702;9.410;2022-08-24T02:02:46;7.90;;;5.37;;
5869;SDS011;2961;47.702;9.410;2022-08-24T02:05:13;6.50;;;6.00;;
5869;SDS011;2961;47.702;9.410;2022-08-24T02:07:41;7.47;;;6.20;;
5869;SDS011;2961;47.702;9.410;2022-08-24T02:10:09;8.73;;;5.43;;
5869;SDS011;2961;47.702;9.410;2022-08-24T02:12:37;5.40;;;5.00;;
5869;SDS011;2961;47.702;9.410;2022-08-24T02:15:06;7.47;;;5.57;;
5869;SDS011;2961;47.702;9.410;2022-08-24T02:17:36;5.97;;;5.23;;
5869;SDS011;2961;47.702;9.410;2022-08-24T02:20:05;9.23;;;5.60;;
5869;SDS011;2961;47.702;9.410;2022-08-24T02:22:33;6.20;;;5.57;;
5869;SDS011;2961;47.702;9.410;2022-08-24T02:25:00;6.30;;;5.10;;
5869;SDS011;2961;47.702;9.410;2022-08-24T02:27:27;5.83;;;5.33;;
5869;SDS011;2961;47.702;9.410;2022-08-24T02:29:53;6.43;;;5.60;;
5869;SDS011;2961;47.702;9.410;2022-08-24T02:32:21;8.63;;;6.17;;
5869;SDS011;2961;47.702;9.410;2022-08-24T02:34:49;6.57;;;6.07;;
5869;SDS011;2961;47.702;9.410;2022-08-24T02:37:16;6.30;;;5.80;;
5869;SDS011;2961;47.702;9.410;2022-08-24T02:39:43;6.47;;;5.87;;
5869;SDS011;2961;47.702;9.410;2022-08-24T02:42:10;7.60;;;5.93;;
5869;SDS011;2961;47.702;9.410;2022-08-24T02:44:36;5.90;;;5.40;;
5869;SDS011;2961;47.702;9.410;2022-08-24T02:47:03;6.43;;;5.80;;
5869;SDS011;2961;47.702;9.410;2022-08-24T02:49:30;5.83;;;5.30;;
5869;SDS011;2961;47.702;9.410;2022-08-24T02:51:58;6.47;;;5.80;;
5869;SDS011;2961;47.702;9.410;2022-08-24T02:54:25;6.37;;;5.47;;
5869;SDS011;2961;47.702;9.410;2022-08-24T02:56:52;16.33;;;5.93;;
5869;SDS011;2961;47.702;9.410;2022-08-24T02:59:19;6.50;;;6.00;;
5869;SDS011;2961;47.702;9.410;2022-08-24T03:01:47;6.53;;;6.00;;
5869;SDS011;2961;47.702;9.410;2022-08-24T03:04:14;7.53;;;6.57;;
5869;SDS011;2961;47.702;9.410;2022-08-24T03:06:41;10.27;;;7.77;;
5869;SDS011;2961;47.702;9.410;2022-08-24T03:09:10;7.03;;;6.43;;
5869;SDS011;2961;47.702;9.410;2022-08-24T03:11:37;6.57;;;5.97;;
5869;SDS011;2961;47.702;9.410;2022-08-24T03:14:05;5.83;;;5.43;;
5869;SDS011;2961;47.702;9.410;2022-08-24T03:16:32;6.70;;;6.20;;
5869;SDS011;2961;47.702;9.410;2022-08-24T03:18:59;8.37;;;6.10;;
5869;SDS011;2961;47.702;9.410;2022-08-24T03:21:26;6.77;;;6.27;;
5869;SDS011;2961;47.702;9.410;2022-08-24T03:23:53;6.77;;;6.20;;
5869;SDS011;2961;47.702;9.410;2022-08-24T03:26:22;7.97;;;6.63;;
5869;SDS011;2961;47.702;9.410;2022-08-24T03:28:48;5.47;;;5.10;;
5869;SDS011;2961;47.702;9.410;2022-08-24T03:31:16;6.23;;;5.73;;
5869;SDS011;2961;47.702;9.410;2022-08-24T03:33:43;7.30;;;5.40;;
5869;SDS011;2961;47.702;9.410;2022-08-24T03:36:10;5.97;;;5.10;;
5869;SDS011;2961;47.702;9.410;2022-08-24T03:38:37;5.70;;;5.20;;
5869;SDS011;2961;47.702;9.410;2022-08-24T03:41:05;6.13;;;5.73;;
5869;SDS011;2961;47.702;9.410;2022-08-24T03:43:33;6.27;;;5.80;;
5869;SDS011;2961;47.702;9.410;2022-08-24T03:46:19;6.43;;;5.93;;
5869;SDS011;2961;47.702;9.410;2022-08-24T03:48:47;6.67;;;5.73;;
5869;SDS011;2961;47.702;9.410;2022-08-24T03:51:15;8.80;;;5.87;;
5869;SDS011;2961;47.702;9.410;2022-08-24T03:53:43;4.93;;;4.53;;
5869;SDS011;2961;47.702;9.410;2022-08-24T03:56:10;7.73;;;5.53;;
5869;SDS011;2961;47.702;9.410;2022-08-24T03:58:38;8.70;;;5.97;;
5869;SDS011;2961;47.702;9.410;2022-08-24T04:01:06;6.57;;;5.97;;
5869;SDS011;2961;47.702;9.410;2022-08-24T04:03:34;8.10;;;7.30;;
5869;SDS011;2961;47.702;9.410;2022-08-24T04:06:02;7.83;;;6.57;;
5869;SDS011;2961;47.702;9.410;2022-08-24T04:08:29;8.30;;;7.50;;
5869;SDS011;2961;47.702;9.410;2022-08-24T04:10:56;6.80;;;6.30;;
5869;SDS011;2961;47.702;9.410;2022-08-24T04:13:23;11.90;;;7.60;;
5869;SDS011;2961;47.702;9.410;2022-08-24T04:15:51;6.37;;;5.87;;
5869;SDS011;2961;47.702;9.410;2022-08-24T04:18:18;7.33;;;6.40;;
5869;SDS011;2961;47.702;9.410;2022-08-24T04:20:45;9.60;;;6.90;;
5869;SDS011;2961;47.702;9.410;2022-08-24T04:23:12;7.90;;;7.03;;
5869;SDS011;2961;47.702;9.410;2022-08-24T04:25:40;8.03;;;6.60;;
5869;SDS011;2961;47.702;9.410;2022-08-24T04:28:08;8.27;;;6.83;;
5869;SDS011;2961;47.702;9.410;2022-08-24T04:30:38;9.30;;;6.40;;
5869;SDS011;2961;47.702;9.410;2022-08-24T04:33:07;7.47;;;6.80;;
5869;SDS011;2961;47.702;9.410;2022-08-24T04:35:36;7.07;;;6.57;;
5869;SDS011;2961;47.702;9.410;2022-08-24T04:38:03;9.20;;;7.00;;
5869;SDS011;2961;47.702;9.410;2022-08-24T04:40:31;9.87;;;8.80;;
5869;SDS011;2961;47.702;9.410;2022-08-24T04:42:58;10.70;;;8.30;;
5869;SDS011;2961;47.702;9.410;2022-08-24T04:45:25;9.73;;;8.07;;
5869;SDS011;2961;47.702;9.410;2022-08-24T04:47:52;9.20;;;7.40;;
5869;SDS011;2961;47.702;9.410;2022-08-24T04:50:20;9.07;;;7.23;;
5869;SDS011;2961;47.702;9.410;2022-08-24T04:52:47;7.70;;;7.10;;
5869;SDS011;2961;47.702;9.410;2022-08-24T04:55:14;6.97;;;6.37;;
5869;SDS011;2961;47.702;9.410;2022-08-24T04:57:41;6.70;;;6.10;;
5869;SDS011;2961;47.702;9.410;2022-08-24T05:00:08;7.27;;;6.47;;
5869;SDS011;2961;47.702;9.410;2022-08-24T05:02:36;12.07;;;6.60;;
5869;SDS011;2961;47.702;9.410;2022-08-24T05:05:05;7.13;;;6.43;;
5869;SDS011;2961;47.702;9.410;2022-08-24T05:07:33;6.83;;;6.33;;
5869;SDS011;2961;47.702;9.410;2022-08-24T05:10:01;6.87;;;6.20;;
5869;SDS011;2961;47.702;9.410;2022-08-24T05:12:28;7.00;;;6.43;;
5869;SDS011;2961;47.702;9.410;2022-08-24T05:14:55;7.33;;;6.67;;
5869;SDS011;2961;47.702;9.410;2022-08-24T05:17:23;7.10;;;6.40;;
5869;SDS011;2961;47.702;9.410;2022-08-24T05:19:50;13.27;;;7.53;;
5869;SDS011;2961;47.702;9.410;2022-08-24T05:22:17;8.37;;;7.40;;
5869;SDS011;2961;47.702;9.410;2022-08-24T05:24:46;16.43;;;7.87;;
5869;SDS011;2961;47.702;9.410;2022-08-24T05:27:13;7.93;;;7.13;;
5869;SDS011;2961;47.702;9.410;2022-08-24T05:29:40;8.23;;;7.43;;
5869;SDS011;2961;47.702;9.410;2022-08-24T05:32:07;9.80;;;7.40;;
5869;SDS011;2961;47.702;9.410;2022-08-24T05:34:34;13.87;;;8.00;;
5869;SDS011;2961;47.702;9.410;2022-08-24T05:37:00;9.33;;;8.47;;
5869;SDS011;2961;47.702;9.410;2022-08-24T05:39:28;16.00;;;8.80;;
5869;SDS011;2961;47.702;9.410;2022-08-24T05:41:56;10.97;;;9.57;;
5869;SDS011;2961;47.702;9.410;2022-08-24T05:44:25;12.43;;;8.83;;
5869;SDS011;2961;47.702;9.410;2022-08-24T05:46:54;16.33;;;8.83;;
5869;SDS011;2961;47.702;9.410;2022-08-24T05:49:22;11.47;;;8.60;;
5869;SDS011;2961;47.702;9.410;2022-08-24T05:51:49;8.93;;;7.90;;
5869;SDS011;2961;47.702;9.410;2022-08-24T05:54:16;8.10;;;7.30;;
5869;SDS011;2961;47.702;9.410;2022-08-24T05:56:44;8.20;;;7.40;;
5869;SDS011;2961;47.702;9.410;2022-08-24T05:59:12;7.97;;;6.83;;
5869;SDS011;2961;47.702;9.410;2022-08-24T06:01:42;10.00;;;7.43;;
5869;SDS011;2961;47.702;9.410;2022-08-24T06:04:09;8.80;;;8.03;;
5869;SDS011;2961;47.702;9.410;2022-08-24T06:06:36;10.70;;;7.10;;
5869;SDS011;2961;47.702;9.410;2022-08-24T06:09:03;7.33;;;6.63;;
5869;SDS011;2961;47.702;9.410;2022-08-24T06:11:31;8.90;;;6.47;;
5869;SDS011;2961;47.702;9.410;2022-08-24T06:14:01;8.00;;;7.20;;
5869;SDS011;2961;47.702;9.410;2022-08-24T06:16:32;7.70;;;6.90;;
5869;SDS011;2961;47.702;9.410;2022-08-24T06:18:59;9.20;;;7.20;;
5869;SDS011;2961;47.702;9.410;2022-08-24T06:21:26;7.53;;;6.73;;
5869;SDS011;2961;47.702;9.410;2022-08-24T06:23:53;7.10;;;5.83;;
5869;SDS011;2961;47.702;9.410;2022-08-24T06:26:21;11.47;;;6.10;;
5869;SDS011;2961;47.702;9.410;2022-08-24T06:29:05;6.37;;;5.83;;
5869;SDS011;2961;47.702;9.410;2022-08-24T06:31:36;7.43;;;6.60;;
5869;SDS011;2961;47.702;9.410;2022-08-24T06:34:04;16.13;;;6.00;;
5869;SDS011;2961;47.702;9.410;2022-08-24T06:36:31;6.87;;;6.17;;
5869;SDS011;2961;47.702;9.410;2022-08-24T06:38:58;7.33;;;5.47;;
5869;SDS011;2961;47.702;9.410;2022-08-24T06:41:25;6.20;;;5.80;;
5869;SDS011;2961;47.702;9.410;2022-08-24T06:43:52;11.83;;;4.73;;
5869;SDS011;2961;47.702;9.410;2022-08-24T06:46:19;6.00;;;5.50;;
5869;SDS011;2961;47.702;9.410;2022-08-24T06:48:47;6.83;;;4.97;;
5869;SDS011;2961;47.702;9.410;2022-08-24T06:51:16;6.00;;;5.50;;
5869;SDS011;2961;47.702;9.410;2022-08-24T06:53:44;5.50;;;5.00;;
5869;SDS011;2961;47.702;9.410;2022-08-24T06:56:11;5.70;;;5.20;;
5869;SDS011;2961;47.702;9.410;2022-08-24T06:58:38;5.80;;;5.40;;
5869;SDS011;2961;47.702;9.410;2022-08-24T07:01:09;5.37;;;4.90;;
5869;SDS011;2961;47.702;9.410;2022-08-24T07:03:37;6.27;;;5.40;;
5869;SDS011;2961;47.702;9.410;2022-08-24T07:06:06;5.87;;;4.50;;
5869;SDS011;2961;47.702;9.410;2022-08-24T07:08:34;6.67;;;4.73;;
5869;SDS011;2961;47.702;9.410;2022-08-24T07:11:01;4.30;;;3.90;;
5869;SDS011;2961;47.702;9.410;2022-08-24T07:13:29;5.90;;;4.20;;
5869;SDS011;2961;47.702;9.410;2022-08-24T07:15:57;4.73;;;3.70;;
5869;SDS011;2961;47.702;9.410;2022-08-24T07:18:24;3.60;;;3.40;;
5869;SDS011;2961;47.702;9.410;2022-08-24T07:20:52;4.93;;;3.80;;
5869;SDS011;2961;47.702;9.410;2022-08-24T07:23:20;5.27;;;2.90;;
5869;SDS011;2961;47.702;9.410;2022-08-24T07:25:47;3.10;;;2.90;;
5869;SDS011;2961;47.702;9.410;2022-08-24T07:28:14;4.23;;;3.33;;
5869;SDS011;2961;47.702;9.410;2022-08-24T07:30:41;3.40;;;3.13;;
5869;SDS011;2961;47.702;9.410;2022-08-24T07:33:21;3.00;;;2.90;;
5869;SDS011;2961;47.702;9.410;2022-08-24T07:35:48;5.43;;;3.30;;
5869;SDS011;2961;47.702;9.410;2022-08-24T07:38:15;4.40;;;2.87;;
5869;SDS011;2961;47.702;9.410;2022-08-24T07:40:44;6.20;;;2.93;;
5869;SDS011;2961;47.702;9.410;2022-08-24T07:43:13;3.10;;;2.80;;
5869;SDS011;2961;47.702;9.410;2022-08-24T07:45:39;3.50;;;3.30;;
5869;SDS011;2961;47.702;9.410;2022-08-24T07:48:07;4.97;;;3.30;;
5869;SDS011;2961;47.702;9.410;2022-08-24T07:50:34;2.87;;;2.77;;
5869;SDS011;2961;47.702;9.410;2022-08-24T07:53:01;4.47;;;3.60;;
5869;SDS011;2961;47.702;9.410;2022-08-24T07:55:28;3.17;;;3.00;;
5869;SDS011;2961;47.702;9.410;2022-08-24T07:57:56;6.77;;;2.90;;
5869;SDS011;2961;47.702;9.410;2022-08-24T08:00:24;4.27;;;2.63;;
5869;SDS011;2961;47.702;9.410;2022-08-24T08:02:51;2.70;;;2.50;;
5869;SDS011;2961;47.702;9.410;2022-08-24T08:05:19;2.60;;;2.40;;
5869;SDS011;2961;47.702;9.410;2022-08-24T08:07:47;2.40;;;2.20;;
5869;SDS011;2961;47.702;9.410;2022-08-24T08:10:14;3.40;;;3.10;;
5869;SDS011;2961;47.702;9.410;2022-08-24T08:12:41;5.20;;;2.60;;
5869;SDS011;2961;47.702;9.410;2022-08-24T08:15:10;3.93;;;2.70;;
5869;SDS011;2961;47.702;9.410;2022-08-24T08:17:37;2.53;;;2.33;;
5869;SDS011;2961;47.702;9.410;2022-08-24T08:20:05;3.40;;;2.87;;
5869;SDS011;2961;47.702;9.410;2022-08-24T08:22:33;5.60;;;3.50;;
5869;SDS011;2961;47.702;9.410;2022-08-24T08:25:21;5.13;;;3.17;;
5869;SDS011;2961;47.702;9.410;2022-08-24T08:27:48;6.50;;;2.50;;
5869;SDS011;2961;47.702;9.410;2022-08-24T08:30:16;4.30;;;2.90;;
5869;SDS011;2961;47.702;9.410;2022-08-24T08:32:43;4.90;;;2.40;;
5869;SDS011;2961;47.702;9.410;2022-08-24T08:35:10;3.50;;;3.20;;
5869;SDS011;2961;47.702;9.410;2022-08-24T08:37:37;4.90;;;3.10;;
5869;SDS011;2961;47.702;9.410;2022-08-24T08:40:04;7.40;;;3.00;;
5869;SDS011;2961;47.702;9.410;2022-08-24T08:42:42;3.80;;;3.10;;
5869;SDS011;2961;47.702;9.410;2022-08-24T08:56:58;3.27;;;2.37;;
5869;SDS011;2961;47.702;9.410;2022-08-24T08:59:37;2.93;;;2.73;;
5869;SDS011;2961;47.702;9.410;2022-08-24T09:02:16;4.67;;;2.60;;
5869;SDS011;2961;47.702;9.410;2022-08-24T09:05:01;4.47;;;2.95;;
5869;SDS011;2961;47.702;9.410;2022-08-24T09:07:49;5.80;;;2.87;;
5869;SDS011;2961;47.702;9.410;2022-08-24T09:10:32;5.10;;;2.57;;
5869;SDS011;2961;47.702;9.410;2022-08-24T09:13:10;2.83;;;2.63;;
5869;SDS011;2961;47.702;9.410;2022-08-24T09:15:54;6.07;;;2.57;;
5869;SDS011;2961;47.702;9.410;2022-08-24T09:18:49;2.57;;;2.37;;
5869;SDS011;2961;47.702;9.410;2022-08-24T09:21:32;2.50;;;2.40;;
5869;SDS011;2961;47.702;9.410;2022-08-24T09:24:15;5.87;;;2.37;;
5869;SDS011;2961;47.702;9.410;2022-08-24T09:26:55;2.40;;;2.20;;
5869;SDS011;2961;47.702;9.410;2022-08-24T09:29:39;3.83;;;2.40;;
5869;SDS011;2961;47.702;9.410;2022-08-24T09:32:20;3.10;;;2.17;;
5869;SDS011;2961;47.702;9.410;2022-08-24T09:35:00;4.20;;;2.40;;
5869;SDS011;2961;47.702;9.410;2022-08-24T09:37:31;2.80;;;2.60;;
5869;SDS011;2961;47.702;9.410;2022-08-24T09:40:07;2.43;;;2.23;;
5869;SDS011;2961;47.702;9.410;2022-08-24T09:42:55;4.17;;;2.57;;
5869;SDS011;2961;47.702;9.410;2022-08-24T09:45:55;2.00;;;1.90;;
5869;SDS011;2961;47.702;9.410;2022-08-24T09:48:51;2.10;;;2.00;;
5869;SDS011;2961;47.702;9.410;2022-08-24T09:54:45;2.40;;;2.03;;
5869;SDS011;2961;47.702;9.410;2022-08-24T09:57:38;3.43;;;2.17;;
5869;SDS011;2961;47.702;9.410;2022-08-24T10:00:13;5.13;;;2.40;;
5869;SDS011;2961;47.702;9.410;2022-08-24T10:02:52;3.80;;;2.37;;
5869;SDS011;2961;47.702;9.410;2022-08-24T10:05:29;5.53;;;1.90;;
5869;SDS011;2961;47.702;9.410;2022-08-24T10:08:08;1.63;;;1.57;;
5869;SDS011;2961;47.702;9.410;2022-08-24T10:10:49;2.40;;;2.20;;
5869;SDS011;2961;47.702;9.410;2022-08-24T10:13:24;1.73;;;1.63;;
5869;SDS011;2961;47.702;9.410;2022-08-24T10:16:01;13.10;;;1.93;;
5869;SDS011;2961;47.702;9.410;2022-08-24T10:18:43;2.17;;;2.03;;
5869;SDS011;2961;47.702;9.410;2022-08-24T10:21:24;2.30;;;2.10;;
5869;SDS011;2961;47.702;9.410;2022-08-24T10:24:19;4.00;;;2.10;;
5869;SDS011;2961;47.702;9.410;2022-08-24T10:32:53;2.30;;;1.83;;
5869;SDS011;2961;47.702;9.410;2022-08-24T10:35:31;6.47;;;2.03;;
5869;SDS011;2961;47.702;9.410;2022-08-24T10:44:29;1.80;;;1.50;;
5869;SDS011;2961;47.702;9.410;2022-08-24T10:47:10;1.50;;;1.37;;
5869;SDS011;2961;47.702;9.410;2022-08-24T10:50:06;1.67;;;1.57;;
5869;SDS011;2961;47.702;9.410;2022-08-24T10:56:05;1.73;;;1.63;;
5869;SDS011;2961;47.702;9.410;2022-08-24T11:01:25;2.03;;;1.83;;
5869;SDS011;2961;47.702;9.410;2022-08-24T11:03:56;1.57;;;1.47;;
5869;SDS011;2961;47.702;9.410;2022-08-24T11:06:25;1.73;;;1.60;;
5869;SDS011;2961;47.702;9.410;2022-08-24T11:08:56;3.40;;;1.90;;
5869;SDS011;2961;47.702;9.410;2022-08-24T11:11:26;3.85;;;1.70;;
5869;SDS011;2961;47.702;9.410;2022-08-24T11:13:59;2.40;;;1.70;;
5869;SDS011;2961;47.702;9.410;2022-08-24T11:16:30;1.43;;;1.33;;
5869;SDS011;2961;47.702;9.410;2022-08-24T11:19:00;1.90;;;1.30;;
5869;SDS011;2961;47.702;9.410;2022-08-24T11:21:34;3.50;;;1.33;;
5869;SDS011;2961;47.702;9.410;2022-08-24T11:24:09;1.93;;;1.47;;
5869;SDS011;2961;47.702;9.410;2022-08-24T11:26:49;1.60;;;1.50;;
5869;SDS011;2961;47.702;9.410;2022-08-24T11:29:19;2.03;;;1.67;;
5869;SDS011;2961;47.702;9.410;2022-08-24T11:31:49;1.40;;;1.30;;
5869;SDS011;2961;47.702;9.410;2022-08-24T11:34:18;2.03;;;1.67;;
5869;SDS011;2961;47.702;9.410;2022-08-24T11:36:56;1.60;;;1.50;;
5869;SDS011;2961;47.702;9.410;2022-08-24T11:39:25;2.03;;;1.90;;
5869;SDS011;2961;47.702;9.410;2022-08-24T11:41:56;7.30;;;1.80;;
5869;SDS011;2961;47.702;9.410;2022-08-24T11:44:32;2.40;;;1.40;;
5869;SDS011;2961;47.702;9.410;2022-08-24T11:47:12;1.57;;;1.30;;
5869;SDS011;2961;47.702;9.410;2022-08-24T11:49:57;1.77;;;1.63;;
5869;SDS011;2961;47.702;9.410;2022-08-24T11:52:31;5.00;;;1.40;;
5869;SDS011;2961;47.702;9.410;2022-08-24T11:55:06;3.23;;;1.20;;
5869;SDS011;2961;47.702;9.410;2022-08-24T11:57:40;1.90;;;1.40;;
5869;SDS011;2961;47.702;9.410;2022-08-24T12:00:13;1.60;;;1.60;;
5869;SDS011;2961;47.702;9.410;2022-08-24T12:02:45;1.57;;;1.57;;
5869;SDS011;2961;47.702;9.410;2022-08-24T12:05:21;2.30;;;1.60;;
5869;SDS011;2961;47.702;9.410;2022-08-24T12:08:00;1.87;;;1.77;;
5869;SDS011;2961;47.702;9.410;2022-08-24T12:10:37;1.30;;;1.30;;
5869;SDS011;2961;47.702;9.410;2022-08-24T12:13:15;1.70;;;1.60;;
5869;SDS011;2961;47.702;9.410;2022-08-24T12:15:53;2.47;;;1.47;;
5869;SDS011;2961;47.702;9.410;2022-08-24T12:18:29;1.63;;;1.53;;
5869;SDS011;2961;47.702;9.410;2022-08-24T12:21:06;1.57;;;1.50;;
5869;SDS011;2961;47.702;9.410;2022-08-24T12:23:36;1.50;;;1.40;;
5869;SDS011;2961;47.702;9.410;2022-08-24T12:26:07;2.90;;;1.60;;
5869;SDS011;2961;47.702;9.410;2022-08-24T12:28:39;4.20;;;1.80;;
5869;SDS011;2961;47.702;9.410;2022-08-24T12:31:11;1.90;;;1.80;;
5869;SDS011;2961;47.702;9.410;2022-08-24T12:33:44;2.33;;;1.47;;
5869;SDS011;2961;47.702;9.410;2022-08-24T12:36:16;1.73;;;1.60;;
5869;SDS011;2961;47.702;9.410;2022-08-24T12:38:52;2.00;;;1.90;;
5869;SDS011;2961;47.702;9.410;2022-08-24T12:41:32;1.67;;;1.60;;
5869;SDS011;2961;47.702;9.410;2022-08-24T12:44:03;1.40;;;1.40;;
5869;SDS011;2961;47.702;9.410;2022-08-24T12:46:34;2.50;;;1.47;;
5869;SDS011;2961;47.702;9.410;2022-08-24T12:49:04;3.87;;;1.30;;
5869;SDS011;2961;47.702;9.410;2022-08-24T12:51:39;1.30;;;1.30;;
5869;SDS011;2961;47.702;9.410;2022-08-24T12:54:30;5.97;;;1.70;;
5869;SDS011;2961;47.702;9.410;2022-08-24T12:57:14;4.10;;;1.70;;
5869;SDS011;2961;47.702;9.410;2022-08-24T13:00:01;1.63;;;1.53;;
5869;SDS011;2961;47.702;9.410;2022-08-24T13:02:33;2.20;;;2.00;;
5869;SDS011;2961;47.702;9.410;2022-08-24T13:05:09;1.80;;;1.50;;
5869;SDS011;2961;47.702;9.410;2022-08-24T13:07:39;1.67;;;1.57;;
5869;SDS011;2961;47.702;9.410;2022-08-24T13:10:15;4.57;;;1.73;;
5869;SDS011;2961;47.702;9.410;2022-08-24T13:21:41;2.30;;;2.10;;
5869;SDS011;2961;47.702;9.410;2022-08-24T13:30:20;3.23;;;1.83;;
5869;SDS011;2961;47.702;9.410;2022-08-24T13:32:54;2.00;;;2.00;;
5869;SDS011;2961;47.702;9.410;2022-08-24T13:38:36;1.57;;;1.53;;
5869;SDS011;2961;47.702;9.410;2022-08-24T13:44:30;3.20;;;1.83;;
5869;SDS011;2961;47.702;9.410;2022-08-24T13:47:17;1.80;;;1.70;;
5869;SDS011;2961;47.702;9.410;2022-08-24T13:49:52;1.67;;;1.57;;
5869;SDS011;2961;47.702;9.410;2022-08-24T13:52:30;1.43;;;1.33;;
5869;SDS011;2961;47.702;9.410;2022-08-24T13:55:08;2.03;;;1.30;;
5869;SDS011;2961;47.702;9.410;2022-08-24T13:58:13;3.43;;;1.87;;
5869;SDS011;2961;47.702;9.410;2022-08-24T14:00:48;1.90;;;1.80;;
5869;SDS011;2961;47.702;9.410;2022-08-24T14:03:27;2.00;;;1.67;;
5869;SDS011;2961;47.702;9.410;2022-08-24T14:06:17;1.93;;;1.83;;
5869;SDS011;2961;47.702;9.410;2022-08-24T14:08:49;1.60;;;1.50;;
5869;SDS011;2961;47.702;9.410;2022-08-24T14:11:35;1.63;;;1.60;;
5869;SDS011;2961;47.702;9.410;2022-08-24T14:14:13;2.63;;;1.77;;
5869;SDS011;2961;47.702;9.410;2022-08-24T14:16:53;2.50;;;1.80;;
5869;SDS011;2961;47.702;9.410;2022-08-24T14:19:49;4.83;;;1.80;;
5869;SDS011;2961;47.702;9.410;2022-08-24T14:22:29;3.70;;;1.83;;
5869;SDS011;2961;47.702;9.410;2022-08-24T14:25:11;1.60;;;1.60;;
5869;SDS011;2961;47.702;9.410;2022-08-24T14:27:44;2.00;;;1.90;;
5869;SDS011;2961;47.702;9.410;2022-08-24T14:33:17;5.83;;;1.70;;
5869;SDS011;2961;47.702;9.410;2022-08-24T14:36:10;2.23;;;2.03;;
5869;SDS011;2961;47.702;9.410;2022-08-24T14:41:39;1.70;;;1.63;;
5869;SDS011;2961;47.702;9.410;2022-08-24T14:44:18;2.80;;;1.80;;
5869;SDS011;2961;47.702;9.410;2022-08-24T14:47:05;3.50;;;1.57;;
5869;SDS011;2961;47.702;9.410;2022-08-24T14:49:40;1.70;;;1.67;;
5869;SDS011;2961;47.702;9.410;2022-08-24T14:52:16;4.87;;;1.83;;
5869;SDS011;2961;47.702;9.410;2022-08-24T14:55:01;7.57;;;1.83;;
5869;SDS011;2961;47.702;9.410;2022-08-24T14:57:48;1.53;;;1.43;;
5869;SDS011;2961;47.702;9.410;2022-08-24T15:00:33;6.67;;;1.90;;
5869;SDS011;2961;47.702;9.410;2022-08-24T15:03:22;7.13;;;2.80;;
5869;SDS011;2961;47.702;9.410;2022-08-24T15:06:09;4.50;;;2.27;;
5869;SDS011;2961;47.702;9.410;2022-08-24T15:08:46;1.97;;;1.87;;
5869;SDS011;2961;47.702;9.410;2022-08-24T15:11:13;2.10;;;1.70;;
5869;SDS011;2961;47.702;9.410;2022-08-24T15:13:44;7.27;;;2.00;;
5869;SDS011;2961;47.702;9.410;2022-08-24T15:16:17;16.73;;;2.70;;
5869;SDS011;2961;47.702;9.410;2022-08-24T15:18:51;1.70;;;1.60;;
5869;SDS011;2961;47.702;9.410;2022-08-24T15:21:40;3.70;;;1.60;;
5869;SDS011;2961;47.702;9.410;2022-08-24T15:24:15;1.70;;;1.67;;
5869;SDS011;2961;47.702;9.410;2022-08-24T15:26:56;1.70;;;1.60;;
5869;SDS011;2961;47.702;9.410;2022-08-24T15:29:28;1.50;;;1.40;;
5869;SDS011;2961;47.702;9.410;2022-08-24T15:32:00;2.57;;;1.70;;
5869;SDS011;2961;47.702;9.410;2022-08-24T15:34:33;3.30;;;2.10;;
5869;SDS011;2961;47.702;9.410;2022-08-24T15:37:03;2.20;;;1.93;;
5869;SDS011;2961;47.702;9.410;2022-08-24T15:39:30;2.70;;;2.07;;
5869;SDS011;2961;47.702;9.410;2022-08-24T15:41:58;4.20;;;1.87;;
5869;SDS011;2961;47.702;9.410;2022-08-24T15:44:29;2.20;;;2.07;;
5869;SDS011;2961;47.702;9.410;2022-08-24T15:47:00;4.90;;;2.00;;
5869;SDS011;2961;47.702;9.410;2022-08-24T15:49:29;2.57;;;1.90;;
5869;SDS011;2961;47.702;9.410;2022-08-24T15:52:02;2.60;;;2.00;;
5869;SDS011;2961;47.702;9.410;2022-08-24T15:54:32;3.85;;;2.30;;
5869;SDS011;2961;47.702;9.410;2022-08-24T15:57:03;5.13;;;2.30;;
5869;SDS011;2961;47.702;9.410;2022-08-24T15:59:43;2.40;;;2.20;;
5869;SDS011;2961;47.702;9.410;2022-08-24T16:02:18;2.20;;;2.00;;
5869;SDS011;2961;47.702;9.410;2022-08-24T16:04:50;3.70;;;2.00;;
5869;SDS011;2961;47.702;9.410;2022-08-24T16:07:29;7.37;;;2.10;;
5869;SDS011;2961;47.702;9.410;2022-08-24T16:10:00;2.47;;;1.87;;
5869;SDS011;2961;47.702;9.410;2022-08-24T16:12:30;8.83;;;2.57;;
5869;SDS011;2961;47.702;9.410;2022-08-24T16:15:06;2.37;;;2.17;;
5869;SDS011;2961;47.702;9.410;2022-08-24T16:17:39;2.40;;;1.60;;
5869;SDS011;2961;47.702;9.410;2022-08-24T16:20:11;3.10;;;2.40;;
5869;SDS011;2961;47.702;9.410;2022-08-24T16:22:53;6.50;;;2.50;;
5869;SDS011;2961;47.702;9.410;2022-08-24T16:25:24;3.07;;;2.33;;
5869;SDS011;2961;47.702;9.410;2022-08-24T16:28:00;2.43;;;2.23;;
5869;SDS011;2961;47.702;9.410;2022-08-24T16:30:44;3.43;;;2.20;;
5869;SDS011;2961;47.702;9.410;2022-08-24T16:33:35;3.47;;;2.10;;
5869;SDS011;2961;47.702;9.410;2022-08-24T16:36:08;2.30;;;1.97;;
5869;SDS011;2961;47.702;9.410;2022-08-24T16:38:37;2.30;;;2.10;;
5869;SDS011;2961;47.702;9.410;2022-08-24T16:41:06;4.27;;;2.17;;
5869;SDS011;2961;47.702;9.410;2022-08-24T16:43:35;5.03;;;2.30;;
5869;SDS011;2961;47.702;9.410;2022-08-24T16:46:04;3.13;;;2.27;;